Aviation Digital Data Service (ADDS)

Output produced by METARs form (2210 UTC 24 March 2019)
found at http://www.aviationweather.gov/metar/data/
 
TAF SKBQ 241700Z 2418/2518 03014KT 9999 FEW020 
     TEMPO 2410/2412 4000 BR SCT010 TX33/2417Z TN25/2510Z
       
TAF SKBO 241700Z 2418/2518 27011KT 9999 SCT020 SCT080 
     TEMPO 2420/2423 7000 VCSH SCT017CB 
     BECMG 2502/2504 VRB02KT 
     PROB40 
     TEMPO 2503/2506 8000 VCSH SCT010 
     TEMPO 2509/2512 6000 VCFG SCT015 
     BECMG 2515/2517 25012KT TX19/2418Z TN10/2511Z
       
TAF SKBG 241700Z 2418/2518 32010KT 9999 SCT015 SCT080 
     PROB40 
     TEMPO 2421/2423 7000 RA SCT015TCU BKN070 BRCMG 2501/2503 00000KT 
     TEMPO 2510/2512 5000 BCFG SCT007 
     BECMG 2514/2516 34014KT TX25/2419Z TN18/2511Z
       
TAF SKCL 241700Z 2418/2518 29007KT 9999 SCT020 BKN090 
     TEMPO 2418/2420 7000 DZ SCT015 BKN070 
     TEMPO 2422/2502 9000 VCSH SCT017TCU 
     BECMG 2502/2503 VRB02KT FEW018 SCT090 
     TEMPO 2511/2513 8000 VCFG TX29/2419Z TN19/2511Z
       
TAF SKCG 241700Z 2418/2518 01015KT 9999 FEW020 
     BECMG 2503/2505 02007KT 
     TEMPO 2510/2512 8000 SCT010 TX32/2418Z TN25/2511Z
       
TAF SKCC 241700Z 2418/2518 35010KT 8000 SCT020 SCT080 
     BECMG 2503/2505 VRB02KT 
     TEMPO 2510/2512 5000 BR DZ BKN015 
     BECMG 2515/2517 35014KT TX31/2419Z TN22/2511Z
       
TAF SKLT 241700Z 2418/2518 30007KT 9999 FEW015 SCT080 
     PROB40 
     TEMPO 2421/2424 7000 RA SCT015CB BKN070 
     BECMG 2502/2504 00000KT 
     TEMPO 2509/2512 4000 BR DZ SCT010 
     BECMG 2515/2517 25014KT TX33/2418Z TN23/2511Z
       
TAF SKRG 241700Z 2418/2518 16008KT 9999 SCT018 SCT090 
     PROB40 
     TEMPO 2420/2423 8000 VCTS SCT017CB 
     PROB30 
     TEMPO 2423/2501 7000 TSRA SCT015CB 
     BECMG 2501/2502 VRB02KT BKN013 
     PROB40 
     TEMPO 2504/2508 8000 DZRA 
     TEMPO 2509/2513 5000 BCFG TX23/2419Z TN13/2511Z
       
TAF SKPE 241700Z 2418/2518 26006KT 9999 SCT015 SCT090 
     TEMPO 2418/2420 7000 VCFG DZ SCT015TCU 
     BECMG 2423/2501 VRB02KT FEW017 BKN090 
     PROB30 
     TEMPO 2504/2508 8000 DZRA 
     TEMPO 2509/2513 7000 VCFG TX25/2419Z TN18/2511Z
       
TAF SKSP 241700Z 2418/2518 06014KT 9999 FEW018 TX31/2419Z TN26/2511Z